Time;durP1;ratioP1;P1;durP2;ratioP2;P2;SDS_P1;SDS_P2;PMS_P1;PMS_P2;Temp;Humidity;BMP_temperature;BMP_pressure;BME280_temperature;BME280_humidity;BME280_pressure;Samples;Min_cycle;Max_cycle;Signal;HPM_P1;HPM_P2
2024/01/06 00:02:19;;;;;;;331.67;29.73;;;;;;;;;;4933622;28;20046;-87
2024/01/06 00:04:45;;;;;;;409.83;35.70;;;;;;;;;;4930068;28;20997;-87
2024/01/06 00:07:13;;;;;;;435.88;37.88;;;;;;;;;;4925134;28;20128;-88
2024/01/06 00:09:40;;;;;;;424.25;36.13;;;;;;;;;;4919499;28;20922;-88
2024/01/06 00:12:06;;;;;;;438.33;38.28;;;;;;;;;;4919435;28;20117;-88
2024/01/06 00:14:33;;;;;;;470.58;41.03;;;;;;;;;;4921634;28;20354;-88
2024/01/06 00:17:00;;;;;;;341.63;31.42;;;;;;;;;;4927409;28;20047;-87
2024/01/06 00:19:26;;;;;;;452.05;39.85;;;;;;;;;;4922501;28;20049;-87
2024/01/06 00:21:53;;;;;;;486.02;42.58;;;;;;;;;;4919466;28;20588;-87
2024/01/06 00:24:20;;;;;;;354.33;30.88;;;;;;;;;;4917344;28;20077;-89
2024/01/06 00:26:46;;;;;;;514.47;45.20;;;;;;;;;;4924732;28;20090;-89
2024/01/06 00:29:13;;;;;;;550.33;47.22;;;;;;;;;;4913672;28;20934;-88
2024/01/06 00:31:40;;;;;;;526.80;45.72;;;;;;;;;;4918419;28;20027;-87
2024/01/06 00:34:06;;;;;;;485.65;42.55;;;;;;;;;;4920460;28;20047;-87
2024/01/06 00:36:33;;;;;;;419.48;36.38;;;;;;;;;;4925177;28;20179;-88
2024/01/06 00:39:00;;;;;;;371.83;32.92;;;;;;;;;;4931291;28;20123;-88
2024/01/06 00:41:26;;;;;;;432.52;38.08;;;;;;;;;;4927768;28;20863;-87
2024/01/06 00:43:53;;;;;;;479.50;41.92;;;;;;;;;;4921806;28;20035;-88
2024/01/06 00:46:19;;;;;;;486.27;44.03;;;;;;;;;;4925188;28;20286;-88
2024/01/06 00:48:46;;;;;;;508.55;45.38;;;;;;;;;;4923144;28;20039;-87
2024/01/06 00:51:13;;;;;;;319.13;30.10;;;;;;;;;;4927448;28;20031;-87
2024/01/06 00:53:39;;;;;;;341.05;31.35;;;;;;;;;;4932321;28;20039;-87
2024/01/06 00:56:06;;;;;;;377.48;33.90;;;;;;;;;;4928167;28;20034;-87
2024/01/06 00:58:33;;;;;;;271.50;26.40;;;;;;;;;;4936616;28;20035;-88
2024/01/06 01:00:59;;;;;;;380.38;34.22;;;;;;;;;;4934417;28;20142;-87
2024/01/06 01:03:26;;;;;;;379.00;35.47;;;;;;;;;;4932371;28;20129;-87
2024/01/06 01:05:53;;;;;;;415.02;38.35;;;;;;;;;;4929861;28;20039;-87
2024/01/06 01:08:19;;;;;;;469.13;43.33;;;;;;;;;;4922371;28;20073;-87
2024/01/06 01:10:46;;;;;;;550.20;50.63;;;;;;;;;;4918871;28;20039;-87
2024/01/06 01:13:12;;;;;;;504.80;45.53;;;;;;;;;;4913749;28;20050;-87
2024/01/06 01:15:39;;;;;;;532.13;47.90;;;;;;;;;;4914349;28;20039;-86
2024/01/06 01:18:06;;;;;;;549.83;49.35;;;;;;;;;;4923401;28;20083;-88
2024/01/06 01:20:33;;;;;;;477.52;41.03;;;;;;;;;;4930566;28;20049;-90
2024/01/06 01:22:59;;;;;;;408.00;36.47;;;;;;;;;;4936053;28;20042;-90
2024/01/06 01:25:26;;;;;;;409.70;35.40;;;;;;;;;;4930402;28;20054;-85
2024/01/06 01:27:53;;;;;;;370.42;33.85;;;;;;;;;;4929217;28;20039;-88
2024/01/06 01:30:19;;;;;;;340.67;31.45;;;;;;;;;;4929338;28;20097;-89
2024/01/06 01:32:46;;;;;;;443.63;37.28;;;;;;;;;;4927064;28;20106;-86
2024/01/06 01:35:13;;;;;;;422.90;36.58;;;;;;;;;;4923112;28;21109;-87
2024/01/06 01:37:39;;;;;;;330.70;29.90;;;;;;;;;;4930508;28;20043;-89
2024/01/06 01:40:06;;;;;;;498.92;42.45;;;;;;;;;;4930386;28;21051;-87
2024/01/06 01:42:33;;;;;;;448.13;40.35;;;;;;;;;;4920862;28;20046;-88
2024/01/06 01:44:59;;;;;;;474.98;39.85;;;;;;;;;;4919400;28;20046;-88
2024/01/06 01:47:26;;;;;;;563.83;50.78;;;;;;;;;;4909641;28;20877;-87
2024/01/06 01:49:54;;;;;;;601.15;53.80;;;;;;;;;;4909300;28;20038;-85
2024/01/06 01:52:22;;;;;;;614.90;55.70;;;;;;;;;;4904479;28;20050;-88
2024/01/06 01:54:48;;;;;;;627.17;56.08;;;;;;;;;;4906523;28;20042;-85
2024/01/06 01:57:16;;;;;;;614.63;54.08;;;;;;;;;;4905644;28;20038;-88
2024/01/06 01:59:42;;;;;;;583.55;52.00;;;;;;;;;;4910086;28;20035;-88
2024/01/06 02:02:10;;;;;;;33.47;9.13;;;;;;;;;;5085606;22;20839;-91
2024/01/06 02:04:38;;;;;;;86.05;14.18;;;;;;;;;;5004512;28;20095;-90
2024/01/06 02:07:04;;;;;;;65.68;12.10;;;;;;;;;;4993566;28;20057;-90
2024/01/06 02:09:31;;;;;;;71.07;11.93;;;;;;;;;;4980636;28;20033;-91
2024/01/06 02:11:58;;;;;;;62.80;11.05;;;;;;;;;;5000577;28;20574;-91
2024/01/06 02:14:24;;;;;;;89.97;13.95;;;;;;;;;;4985855;28;20057;-91
2024/01/06 02:16:51;;;;;;;92.07;11.50;;;;;;;;;;4987762;28;20030;-90
2024/01/06 02:19:18;;;;;;;88.53;12.20;;;;;;;;;;4989446;28;20039;-91
2024/01/06 02:21:49;;;;;;;88.35;11.60;;;;;;;;;;4991354;28;20052;-91
2024/01/06 02:24:15;;;;;;;63.70;9.80;;;;;;;;;;4992739;28;20057;-91
2024/01/06 02:26:42;;;;;;;107.82;13.55;;;;;;;;;;4996227;28;20034;-91
2024/01/06 02:29:08;;;;;;;50.75;10.07;;;;;;;;;;4989741;28;20099;-90
2024/01/06 02:31:35;;;;;;;69.40;9.02;;;;;;;;;;4992303;28;20859;-91
2024/01/06 02:34:02;;;;;;;79.57;11.65;;;;;;;;;;4987026;28;20041;-91
2024/01/06 02:36:28;;;;;;;73.60;10.05;;;;;;;;;;4991699;28;20045;-90
2024/01/06 02:38:55;;;;;;;72.45;11.38;;;;;;;;;;4977380;28;20065;-91
2024/01/06 02:41:21;;;;;;;58.35;9.20;;;;;;;;;;4999006;28;20045;-90
2024/01/06 02:43:48;;;;;;;28.15;7.38;;;;;;;;;;5002737;28;20052;-90
2024/01/06 02:46:15;;;;;;;30.23;7.57;;;;;;;;;;5003924;28;20046;-90
2024/01/06 02:48:41;;;;;;;86.88;9.95;;;;;;;;;;5008151;28;20527;-91
2024/01/06 02:51:08;;;;;;;78.32;10.38;;;;;;;;;;4988232;28;20037;-91
2024/01/06 02:53:35;;;;;;;44.40;8.45;;;;;;;;;;5011442;28;20041;-90
2024/01/06 02:56:01;;;;;;;51.55;8.60;;;;;;;;;;5016195;28;20038;-91
2024/01/06 02:58:28;;;;;;;36.65;6.35;;;;;;;;;;5021751;28;20041;-91
2024/01/06 03:00:54;;;;;;;60.15;9.45;;;;;;;;;;5019449;28;20045;-90
2024/01/06 03:03:21;;;;;;;54.20;8.82;;;;;;;;;;5013823;28;20041;-90
2024/01/06 03:05:49;;;;;;;30.00;7.35;;;;;;;;;;5014274;28;20033;-90
2024/01/06 03:08:16;;;;;;;50.35;8.60;;;;;;;;;;5003765;28;20577;-90
2024/01/06 03:10:43;;;;;;;72.85;10.57;;;;;;;;;;5004991;28;20048;-90
2024/01/06 03:13:09;;;;;;;52.63;8.73;;;;;;;;;;5005914;28;20041;-90
2024/01/06 03:15:36;;;;;;;18.55;6.15;;;;;;;;;;5017573;28;20029;-90
2024/01/06 03:18:03;;;;;;;75.75;11.23;;;;;;;;;;5010348;28;20042;-91
2024/01/06 03:20:30;;;;;;;82.55;10.40;;;;;;;;;;5001342;28;20095;-91
2024/01/06 03:22:56;;;;;;;108.85;12.65;;;;;;;;;;4992085;28;20156;-91
2024/01/06 03:25:23;;;;;;;150.52;15.63;;;;;;;;;;4986224;28;20030;-90
2024/01/06 03:27:49;;;;;;;80.18;12.00;;;;;;;;;;4985847;28;20199;-91
2024/01/06 03:30:16;;;;;;;63.80;10.18;;;;;;;;;;4986060;28;20056;-91
2024/01/06 03:32:42;;;;;;;82.80;10.00;;;;;;;;;;4997640;28;20874;-91
2024/01/06 03:35:09;;;;;;;70.82;8.73;;;;;;;;;;5000158;28;20108;-91
2024/01/06 03:37:36;;;;;;;59.42;10.23;;;;;;;;;;5000626;28;20639;-91
2024/01/06 03:40:02;;;;;;;74.60;10.70;;;;;;;;;;5000975;28;20056;-91
2024/01/06 03:42:29;;;;;;;50.92;8.70;;;;;;;;;;4998764;28;20049;-91
2024/01/06 03:44:56;;;;;;;143.63;15.02;;;;;;;;;;4991647;28;20052;-91
2024/01/06 03:47:23;;;;;;;108.20;12.65;;;;;;;;;;4989184;28;21066;-91
2024/01/06 03:49:49;;;;;;;126.18;14.20;;;;;;;;;;4987088;28;20041;-91
2024/01/06 03:52:16;;;;;;;116.57;14.00;;;;;;;;;;5005596;28;20072;-94
2024/01/06 03:54:43;;;;;;;120.07;13.35;;;;;;;;;;4999746;28;20113;-93
2024/01/06 03:57:09;;;;;;;78.57;11.60;;;;;;;;;;5018531;28;20065;-91
2024/01/06 03:59:36;;;;;;;75.68;9.80;;;;;;;;;;4997246;28;20044;-93
2024/01/06 04:02:02;;;;;;;102.15;12.43;;;;;;;;;;4997370;28;20875;-91
2024/01/06 04:04:29;;;;;;;43.97;9.25;;;;;;;;;;4993620;28;20611;-90
2024/01/06 04:06:55;;;;;;;140.70;16.55;;;;;;;;;;4991458;28;20077;-93
2024/01/06 04:09:22;;;;;;;96.80;12.30;;;;;;;;;;4982824;28;20030;-90
2024/01/06 04:11:48;;;;;;;41.97;9.15;;;;;;;;;;4996474;28;20042;-90
2024/01/06 04:14:15;;;;;;;62.92;11.13;;;;;;;;;;5008828;28;20963;-91
2024/01/06 04:16:42;;;;;;;73.82;11.10;;;;;;;;;;5003897;28;20103;-90
2024/01/06 04:19:08;;;;;;;74.75;12.52;;;;;;;;;;5000429;28;20628;-92
2024/01/06 04:21:35;;;;;;;96.15;11.57;;;;;;;;;;4999343;28;20038;-91
2024/01/06 04:24:02;;;;;;;96.85;13.27;;;;;;;;;;4997633;28;20594;-91
2024/01/06 04:26:28;;;;;;;39.83;9.00;;;;;;;;;;5005580;28;20709;-90
2024/01/06 04:28:55;;;;;;;59.15;11.52;;;;;;;;;;5002947;28;20048;-91
2024/01/06 04:31:21;;;;;;;95.07;13.48;;;;;;;;;;5001664;28;20064;-91
2024/01/06 04:33:48;;;;;;;70.50;10.07;;;;;;;;;;5001807;28;20049;-90
2024/01/06 04:36:15;;;;;;;46.65;10.75;;;;;;;;;;4992978;28;20037;-91
2024/01/06 04:38:42;;;;;;;78.85;11.80;;;;;;;;;;4994854;28;20604;-91
2024/01/06 04:41:08;;;;;;;79.00;14.05;;;;;;;;;;4994054;28;20257;-90
2024/01/06 04:43:35;;;;;;;75.53;12.60;;;;;;;;;;4995403;28;20053;-91
2024/01/06 04:46:02;;;;;;;85.18;13.65;;;;;;;;;;4997800;28;20127;-91
2024/01/06 04:48:29;;;;;;;61.40;11.77;;;;;;;;;;4987998;28;20041;-92
2024/01/06 04:50:55;;;;;;;78.03;14.50;;;;;;;;;;4988363;28;20041;-91
2024/01/06 04:53:22;;;;;;;79.63;12.23;;;;;;;;;;4986315;28;20037;-91
2024/01/06 04:55:48;;;;;;;69.95;12.77;;;;;;;;;;4984178;28;20045;-91
2024/01/06 04:58:15;;;;;;;65.85;12.13;;;;;;;;;;4992004;28;20036;-91
2024/01/06 05:00:41;;;;;;;108.72;13.02;;;;;;;;;;4987949;28;20048;-92
2024/01/06 05:03:08;;;;;;;121.35;15.10;;;;;;;;;;4988134;28;20060;-91
2024/01/06 05:05:35;;;;;;;231.68;24.23;;;;;;;;;;4981817;28;20436;-92
2024/01/06 05:08:03;;;;;;;305.35;29.63;;;;;;;;;;4961714;28;20065;-92
2024/01/06 05:10:29;;;;;;;224.48;24.73;;;;;;;;;;4962077;28;20871;-93
2024/01/06 05:12:56;;;;;;;135.98;18.08;;;;;;;;;;4975387;28;20034;-91
2024/01/06 05:15:22;;;;;;;113.35;16.23;;;;;;;;;;4975911;28;20037;-93
2024/01/06 05:17:49;;;;;;;135.13;16.60;;;;;;;;;;4977915;28;20068;-92
2024/01/06 05:20:16;;;;;;;122.90;16.80;;;;;;;;;;4979166;28;20060;-92
2024/01/06 05:22:42;;;;;;;174.07;20.35;;;;;;;;;;4971216;28;20045;-91
2024/01/06 05:25:09;;;;;;;127.28;16.92;;;;;;;;;;4975566;28;20053;-92
2024/01/06 05:27:35;;;;;;;96.53;14.65;;;;;;;;;;4981226;28;20034;-92
2024/01/06 05:30:02;;;;;;;115.05;16.02;;;;;;;;;;4981078;28;20041;-91
2024/01/06 05:32:29;;;;;;;74.43;13.02;;;;;;;;;;4981551;28;20868;-91
2024/01/06 05:34:55;;;;;;;90.53;14.15;;;;;;;;;;4979200;28;20037;-92
2024/01/06 05:37:22;;;;;;;150.43;17.38;;;;;;;;;;4981639;28;20037;-90
2024/01/06 05:39:49;;;;;;;125.93;17.00;;;;;;;;;;4981574;28;20522;-91
2024/01/06 05:42:15;;;;;;;81.07;14.73;;;;;;;;;;4989118;28;20791;-91
2024/01/06 05:44:42;;;;;;;122.88;17.92;;;;;;;;;;4990311;28;20108;-91
2024/01/06 05:47:11;;;;;;;218.98;22.83;;;;;;;;;;4981265;28;20963;-91
2024/01/06 05:49:41;;;;;;;152.75;20.13;;;;;;;;;;4979270;28;20095;-93
2024/01/06 05:52:08;;;;;;;171.23;20.02;;;;;;;;;;4970886;28;20088;-92
2024/01/06 05:54:34;;;;;;;138.70;18.27;;;;;;;;;;4974273;28;20092;-91
2024/01/06 05:57:01;;;;;;;179.52;20.23;;;;;;;;;;4975691;28;20527;-90
2024/01/06 05:59:27;;;;;;;154.48;18.85;;;;;;;;;;4976679;28;20056;-92
2024/01/06 06:01:54;;;;;;;235.40;25.23;;;;;;;;;;4968598;28;21101;-92
2024/01/06 06:04:20;;;;;;;176.95;20.15;;;;;;;;;;4966579;28;20030;-92
2024/01/06 06:06:47;;;;;;;319.20;31.30;;;;;;;;;;4961389;28;20038;-93
2024/01/06 06:09:15;;;;;;;275.83;27.52;;;;;;;;;;4961237;28;20045;-91
2024/01/06 06:11:42;;;;;;;272.77;27.40;;;;;;;;;;4960537;28;20042;-93
2024/01/06 06:14:09;;;;;;;288.45;28.27;;;;;;;;;;4961537;28;20144;-92
2024/01/06 06:16:36;;;;;;;288.92;28.10;;;;;;;;;;4957453;28;20037;-92
2024/01/06 06:19:03;;;;;;;318.08;31.08;;;;;;;;;;4955395;28;20069;-92
2024/01/06 06:21:30;;;;;;;289.33;28.20;;;;;;;;;;4957962;28;20928;-91
2024/01/06 06:23:56;;;;;;;325.83;32.47;;;;;;;;;;4957040;28;20204;-93
2024/01/06 06:26:23;;;;;;;305.30;31.20;;;;;;;;;;4952878;28;20041;-91
2024/01/06 06:28:50;;;;;;;414.70;39.08;;;;;;;;;;4945197;28;20045;-92
2024/01/06 06:31:16;;;;;;;326.63;30.92;;;;;;;;;;4933749;28;20592;-92
2024/01/06 06:33:43;;;;;;;406.48;40.08;;;;;;;;;;4950654;28;20893;-93
2024/01/06 06:36:10;;;;;;;519.15;50.35;;;;;;;;;;4944158;28;20113;-92
2024/01/06 06:38:37;;;;;;;512.60;48.67;;;;;;;;;;4942660;28;20045;-92
2024/01/06 06:41:03;;;;;;;506.65;47.95;;;;;;;;;;4924431;28;20556;-92
2024/01/06 06:43:30;;;;;;;459.05;45.42;;;;;;;;;;4942648;28;20041;-92
2024/01/06 06:45:57;;;;;;;499.45;46.55;;;;;;;;;;4944401;28;20038;-91
2024/01/06 06:48:23;;;;;;;440.50;39.90;;;;;;;;;;4942619;28;20144;-93
2024/01/06 06:50:50;;;;;;;477.60;46.63;;;;;;;;;;4941684;28;20808;-91
2024/01/06 06:53:17;;;;;;;344.70;33.35;;;;;;;;;;4952810;28;20034;-92
2024/01/06 06:55:43;;;;;;;319.48;30.90;;;;;;;;;;4953972;28;20566;-92
2024/01/06 06:58:10;;;;;;;562.45;55.53;;;;;;;;;;4944918;28;20041;-92
2024/01/06 07:00:37;;;;;;;571.47;55.20;;;;;;;;;;4920035;28;20045;-93
2024/01/06 07:03:05;;;;;;;700.33;71.75;;;;;;;;;;4929138;28;20045;-92
2024/01/06 07:05:31;;;;;;;670.28;66.03;;;;;;;;;;4933121;28;20029;-92
2024/01/06 07:08:00;;;;;;;681.50;68.22;;;;;;;;;;4931592;28;20038;-91
2024/01/06 07:10:26;;;;;;;667.75;64.85;;;;;;;;;;4932093;28;20038;-92
2024/01/06 07:12:53;;;;;;;555.38;54.40;;;;;;;;;;4924921;28;20828;-92
2024/01/06 07:15:20;;;;;;;729.75;73.82;;;;;;;;;;4929189;28;20540;-92
2024/01/06 07:17:47;;;;;;;537.95;50.92;;;;;;;;;;4936069;28;21146;-92
2024/01/06 07:20:14;;;;;;;657.35;64.80;;;;;;;;;;4933947;28;20053;-92
2024/01/06 07:22:41;;;;;;;643.92;62.53;;;;;;;;;;4937885;28;20559;-93
2024/01/06 07:25:07;;;;;;;535.20;50.25;;;;;;;;;;4945957;28;20048;-93
2024/01/06 07:27:45;;;;;;;599.00;59.60;;;;;;;;;;4934118;28;20026;-90
2024/01/06 07:33:42;;;;;;;681.28;68.35;;;;;;;;;;4924947;28;20384;-92
2024/01/06 07:36:12;;;;;;;284.23;27.08;;;;;;;;;;4942245;28;20038;-92
2024/01/06 07:38:39;;;;;;;803.97;79.78;;;;;;;;;;4908295;28;20386;-91
2024/01/06 07:41:07;;;;;;;271.80;30.10;;;;;;;;;;4930184;28;20128;-92
2024/01/06 07:43:49;;;;;;;779.80;76.85;;;;;;;;;;4930396;28;21185;-91
2024/01/06 07:46:43;;;;;;;713.20;68.07;;;;;;;;;;4861938;28;20045;-92
2024/01/06 07:49:10;;;;;;;709.00;68.60;;;;;;;;;;4921183;28;20851;-91
2024/01/06 07:51:43;;;;;;;636.33;60.58;;;;;;;;;;4923437;28;20045;-92
2024/01/06 08:01:07;;;;;;;537.65;48.53;;;;;;;;;;4919925;28;20966;-92
2024/01/06 08:03:41;;;;;;;551.75;52.05;;;;;;;;;;4933711;28;20966;-92
2024/01/06 08:06:17;;;;;;;839.92;86.10;;;;;;;;;;4958188;28;20073;-88
2024/01/06 08:08:47;;;;;;;815.72;81.22;;;;;;;;;;4912492;28;20022;-90
2024/01/06 08:11:19;;;;;;;710.53;71.32;;;;;;;;;;4915161;28;20982;-90
2024/01/06 08:13:48;;;;;;;591.03;56.95;;;;;;;;;;4927278;28;20042;-91
2024/01/06 08:16:19;;;;;;;649.05;61.20;;;;;;;;;;4937555;28;20046;-92
2024/01/06 08:18:56;;;;;;;762.00;75.50;;;;;;;;;;4906577;28;20228;-90
2024/01/06 08:21:41;;;;;;;770.13;75.10;;;;;;;;;;4906341;28;20038;-91
2024/01/06 08:24:08;;;;;;;721.10;69.50;;;;;;;;;;4912108;28;20911;-87
2024/01/06 08:26:34;;;;;;;692.97;67.63;;;;;;;;;;4926848;28;20878;-90
2024/01/06 08:29:01;;;;;;;741.72;71.82;;;;;;;;;;4918880;28;20049;-91
2024/01/06 08:31:28;;;;;;;785.88;78.70;;;;;;;;;;4900225;28;20304;-91
2024/01/06 08:33:58;;;;;;;835.17;86.30;;;;;;;;;;4894307;28;20052;-90
2024/01/06 08:36:25;;;;;;;769.03;78.05;;;;;;;;;;4902027;28;21313;-91
2024/01/06 08:38:54;;;;;;;819.20;84.07;;;;;;;;;;4898634;28;20042;-90
2024/01/06 08:41:21;;;;;;;643.00;61.90;;;;;;;;;;4917529;28;20033;-91
2024/01/06 08:43:56;;;;;;;646.80;61.75;;;;;;;;;;4918956;28;20049;-91
2024/01/06 08:46:44;;;;;;;758.40;75.32;;;;;;;;;;4909215;28;20027;-89
2024/01/06 08:49:11;;;;;;;755.10;73.47;;;;;;;;;;4912038;28;21069;-90
2024/01/06 08:51:41;;;;;;;52.10;11.20;;;;;;;;;;4965806;28;20420;-94
2024/01/06 08:54:07;;;;;;;299.05;27.90;;;;;;;;;;4990288;28;20120;-91
2024/01/06 08:56:34;;;;;;;388.20;35.90;;;;;;;;;;4952810;28;20152;-92
2024/01/06 08:59:01;;;;;;;121.03;14.98;;;;;;;;;;4958546;28;20045;-93
2024/01/06 09:01:28;;;;;;;131.52;15.95;;;;;;;;;;4992803;28;20053;-91
2024/01/06 09:03:55;;;;;;;32.75;8.90;;;;;;;;;;4998944;28;20109;-93
2024/01/06 09:06:22;;;;;;;110.43;12.88;;;;;;;;;;5010947;28;20038;-92
2024/01/06 09:08:49;;;;;;;32.80;8.38;;;;;;;;;;5004329;28;20102;-93
2024/01/06 09:11:16;;;;;;;69.57;11.70;;;;;;;;;;5001787;28;20508;-93
2024/01/06 09:13:42;;;;;;;53.17;9.10;;;;;;;;;;5003665;28;20503;-94
2024/01/06 09:16:12;;;;;;;353.35;32.35;;;;;;;;;;4990768;28;20044;-93
2024/01/06 09:18:42;;;;;;;419.05;38.83;;;;;;;;;;4981042;28;20840;-93
2024/01/06 09:21:09;;;;;;;67.38;10.48;;;;;;;;;;4968702;28;20370;-94
2024/01/06 09:23:36;;;;;;;306.35;30.90;;;;;;;;;;4979718;28;20034;-92
2024/01/06 09:26:03;;;;;;;145.60;16.15;;;;;;;;;;4996290;28;20602;-90
2024/01/06 09:28:32;;;;;;;298.17;33.22;;;;;;;;;;4986129;28;20275;-91
2024/01/06 09:30:59;;;;;;;730.67;72.35;;;;;;;;;;4926603;28;20045;-91
2024/01/06 09:33:26;;;;;;;638.38;64.28;;;;;;;;;;4920201;28;20042;-92
2024/01/06 09:35:53;;;;;;;637.25;62.00;;;;;;;;;;4920949;28;21086;-91
2024/01/06 09:38:21;;;;;;;732.58;75.20;;;;;;;;;;4915489;28;20045;-92
2024/01/06 09:40:48;;;;;;;541.47;52.08;;;;;;;;;;4949169;28;20042;-90
2024/01/06 09:43:15;;;;;;;760.95;76.63;;;;;;;;;;4949355;28;20033;-91
2024/01/06 09:45:43;;;;;;;747.00;75.38;;;;;;;;;;4903016;28;20045;-92
2024/01/06 09:48:11;;;;;;;766.85;84.35;;;;;;;;;;4906487;28;20065;-90
2024/01/06 09:50:42;;;;;;;799.20;81.93;;;;;;;;;;4904356;28;20062;-89
2024/01/06 09:53:10;;;;;;;641.42;62.92;;;;;;;;;;4901685;28;20046;-91
2024/01/06 09:55:38;;;;;;;82.22;11.23;;;;;;;;;;4939989;28;20092;-92
2024/01/06 09:58:06;;;;;;;355.73;33.85;;;;;;;;;;4955417;28;20042;-92
2024/01/06 10:00:33;;;;;;;480.73;44.70;;;;;;;;;;4952146;28;20042;-90
2024/01/06 10:03:09;;;;;;;591.20;57.38;;;;;;;;;;4903931;28;20077;-92
2024/01/06 10:05:36;;;;;;;716.83;70.07;;;;;;;;;;4886017;28;20103;-92
2024/01/06 10:08:04;;;;;;;307.10;30.52;;;;;;;;;;4897412;28;20038;-89
2024/01/06 10:10:33;;;;;;;492.77;45.50;;;;;;;;;;4894448;28;20150;-92
2024/01/06 10:13:00;;;;;;;590.15;55.25;;;;;;;;;;4890461;28;21055;-91
2024/01/06 10:15:26;;;;;;;635.47;59.35;;;;;;;;;;4892454;28;20053;-92
2024/01/06 10:17:53;;;;;;;616.25;57.95;;;;;;;;;;4884371;28;20901;-92
2024/01/06 10:20:20;;;;;;;547.75;52.30;;;;;;;;;;4906818;28;21079;-92
2024/01/06 10:22:48;;;;;;;495.02;47.50;;;;;;;;;;4908290;28;20104;-91
2024/01/06 10:25:15;;;;;;;612.78;57.83;;;;;;;;;;4879035;28;20042;-91
2024/01/06 10:27:41;;;;;;;525.33;52.38;;;;;;;;;;4877463;28;20935;-91
2024/01/06 10:30:12;;;;;;;465.98;46.95;;;;;;;;;;4901521;28;20897;-91
2024/01/06 10:32:39;;;;;;;484.90;48.20;;;;;;;;;;4894344;28;20062;-92
2024/01/06 10:35:07;;;;;;;77.50;11.10;;;;;;;;;;4928776;28;20038;-91
2024/01/06 10:37:34;;;;;;;124.63;15.00;;;;;;;;;;4891488;28;20046;-94
2024/01/06 10:40:08;;;;;;;39.58;7.97;;;;;;;;;;4894687;28;20133;-92
2024/01/06 10:42:36;;;;;;;380.38;41.15;;;;;;;;;;4923379;28;20042;-91
2024/01/06 10:45:02;;;;;;;335.70;32.13;;;;;;;;;;4920542;28;20121;-92
2024/01/06 10:50:48;;;;;;;479.48;45.15;;;;;;;;;;4937217;28;20182;-93
2024/01/06 10:53:14;;;;;;;740.65;73.93;;;;;;;;;;4918177;28;20042;-89
2024/01/06 10:55:42;;;;;;;767.15;76.60;;;;;;;;;;4887717;28;20105;-91
2024/01/06 10:58:09;;;;;;;412.42;41.15;;;;;;;;;;4869282;28;20043;-90
2024/01/06 11:00:36;;;;;;;317.15;29.40;;;;;;;;;;4922019;28;20049;-92
2024/01/06 11:03:17;;;;;;;376.52;37.10;;;;;;;;;;4936087;28;20152;-91
2024/01/06 11:05:44;;;;;;;370.98;34.92;;;;;;;;;;4957873;28;20038;-89
2024/01/06 11:08:17;;;;;;;532.63;52.10;;;;;;;;;;4917587;28;20113;-91
2024/01/06 11:10:44;;;;;;;444.30;43.08;;;;;;;;;;4955381;28;20285;-89
2024/01/06 11:13:20;;;;;;;283.75;27.63;;;;;;;;;;4928412;28;20041;-92
2024/01/06 11:15:47;;;;;;;323.60;30.08;;;;;;;;;;4982496;28;20050;-91
2024/01/06 11:18:53;;;;;;;668.33;63.22;;;;;;;;;;4941607;28;20101;-91
2024/01/06 11:21:34;;;;;;;771.40;74.57;;;;;;;;;;4943472;28;21004;-90
2024/01/06 11:24:26;;;;;;;;;;;;;;;;;;;;;
2024/01/06 11:27:33;;;;;;;882.13;89.32;;;;;;;;;;4939111;28;20335;-88
2024/01/06 11:30:07;;;;;;;826.20;83.75;;;;;;;;;;4912296;28;20079;-90
2024/01/06 11:32:41;;;;;;;843.47;85.03;;;;;;;;;;4931441;28;20037;-86
2024/01/06 11:35:09;;;;;;;743.47;74.22;;;;;;;;;;4916696;28;20046;-90
2024/01/06 11:37:59;;;;;;;311.15;29.30;;;;;;;;;;4936510;28;20041;-94
2024/01/06 11:40:33;;;;;;;140.75;15.18;;;;;;;;;;4932875;28;21181;-92
2024/01/06 11:43:11;;;;;;;727.03;71.43;;;;;;;;;;4932123;28;20072;-90
2024/01/06 11:45:42;;;;;;;463.80;43.40;;;;;;;;;;4927801;28;20053;-88
2024/01/06 11:51:44;;;;;;;67.13;6.97;;;;;;;;;;5010687;28;20018;-96
2024/01/06 11:54:51;;;;;;;169.88;17.33;;;;;;;;;;5015318;22;20053;-93
2024/01/06 11:57:27;;;;;;;304.95;29.00;;;;;;;;;;5002595;28;20042;-92
2024/01/06 11:59:54;;;;;;;65.47;8.63;;;;;;;;;;4995083;28;20061;-93
2024/01/06 12:02:24;;;;;;;243.48;22.05;;;;;;;;;;5003164;28;20064;-94
2024/01/06 12:04:51;;;;;;;186.05;15.85;;;;;;;;;;4987869;28;20057;-91
2024/01/06 12:07:19;;;;;;;74.88;8.18;;;;;;;;;;4996077;28;20049;-92
2024/01/06 12:09:49;;;;;;;22.08;4.88;;;;;;;;;;5005775;28;20038;-92
2024/01/06 12:12:17;;;;;;;69.57;8.48;;;;;;;;;;5005729;28;20046;-91
2024/01/06 12:14:45;;;;;;;120.22;11.05;;;;;;;;;;5015956;28;20096;-91
2024/01/06 12:17:13;;;;;;;509.00;46.33;;;;;;;;;;4963479;28;20160;-92
2024/01/06 12:19:43;;;;;;;324.20;29.02;;;;;;;;;;4954269;28;20038;-92
2024/01/06 12:22:13;;;;;;;596.55;55.20;;;;;;;;;;4943447;28;20034;-91
2024/01/06 12:24:41;;;;;;;790.13;77.05;;;;;;;;;;4941545;28;20033;-92
2024/01/06 12:27:10;;;;;;;339.75;31.98;;;;;;;;;;4972232;28;20117;-89
2024/01/06 12:29:40;;;;;;;760.97;73.60;;;;;;;;;;4945570;28;20060;-91
2024/01/06 12:32:07;;;;;;;756.33;73.43;;;;;;;;;;4942800;28;20040;-91
2024/01/06 12:34:34;;;;;;;755.63;73.05;;;;;;;;;;4938349;28;20593;-91
2024/01/06 12:37:02;;;;;;;717.33;69.13;;;;;;;;;;4944018;28;20105;-90
2024/01/06 12:39:32;;;;;;;484.45;43.20;;;;;;;;;;4931749;28;20042;-92
2024/01/06 12:42:01;;;;;;;140.20;11.80;;;;;;;;;;4989199;28;20037;-94
2024/01/06 12:44:32;;;;;;;114.47;12.48;;;;;;;;;;4994309;28;20049;-92
2024/01/06 12:46:59;;;;;;;304.67;27.02;;;;;;;;;;4957942;28;20151;-91
2024/01/06 12:49:25;;;;;;;484.02;42.25;;;;;;;;;;4947898;28;20041;-91
2024/01/06 12:51:52;;;;;;;175.15;17.27;;;;;;;;;;4983316;28;20811;-92
2024/01/06 12:54:19;;;;;;;504.55;41.45;;;;;;;;;;4961087;28;21024;-90
2024/01/06 12:56:46;;;;;;;453.38;38.53;;;;;;;;;;4950865;28;20048;-91
2024/01/06 12:59:12;;;;;;;297.92;25.90;;;;;;;;;;4962550;28;20037;-93
2024/01/06 13:01:39;;;;;;;487.70;42.72;;;;;;;;;;4963074;28;20033;-91
2024/01/06 13:04:06;;;;;;;528.13;45.85;;;;;;;;;;4946646;28;20043;-91
2024/01/06 13:06:34;;;;;;;558.08;49.83;;;;;;;;;;4946693;28;20033;-91
2024/01/06 13:09:05;;;;;;;422.02;37.70;;;;;;;;;;4937761;28;20107;-90
2024/01/06 13:11:34;;;;;;;603.85;55.40;;;;;;;;;;4935580;28;21078;-91
2024/01/06 13:14:01;;;;;;;649.35;59.78;;;;;;;;;;4936643;28;20041;-91
2024/01/06 13:16:28;;;;;;;116.45;12.02;;;;;;;;;;4943669;28;20131;-91
2024/01/06 13:18:54;;;;;;;661.50;61.08;;;;;;;;;;4938787;28;20049;-90
2024/01/06 13:21:22;;;;;;;726.05;68.93;;;;;;;;;;4925445;28;20148;-90
2024/01/06 13:23:49;;;;;;;647.17;60.20;;;;;;;;;;4913456;28;20990;-91
2024/01/06 13:26:15;;;;;;;592.50;52.53;;;;;;;;;;4923588;28;20053;-90
2024/01/06 13:28:46;;;;;;;548.28;50.60;;;;;;;;;;4934709;28;20481;-91
2024/01/06 13:31:12;;;;;;;800.92;78.40;;;;;;;;;;4905577;28;20042;-89
2024/01/06 13:33:39;;;;;;;812.42;79.55;;;;;;;;;;4909213;28;20041;-91
2024/01/06 13:36:09;;;;;;;605.35;56.30;;;;;;;;;;4911737;28;20904;-92
2024/01/06 13:38:35;;;;;;;692.10;66.53;;;;;;;;;;4905975;28;20678;-89
2024/01/06 13:41:03;;;;;;;786.53;77.25;;;;;;;;;;4917478;28;21338;-90
2024/01/06 13:43:29;;;;;;;783.13;76.93;;;;;;;;;;4912969;28;21079;-90
2024/01/06 13:45:56;;;;;;;782.63;76.32;;;;;;;;;;4905655;28;21124;-89
2024/01/06 13:48:22;;;;;;;796.92;78.18;;;;;;;;;;4908194;28;20041;-89
2024/01/06 13:50:49;;;;;;;815.08;80.07;;;;;;;;;;4908000;28;20033;-89
2024/01/06 13:53:16;;;;;;;800.45;78.22;;;;;;;;;;4902781;28;20044;-89
2024/01/06 13:55:43;;;;;;;784.55;77.15;;;;;;;;;;4905491;28;20081;-89
2024/01/06 13:58:10;;;;;;;750.92;71.50;;;;;;;;;;4921459;28;20049;-89
2024/01/06 14:00:37;;;;;;;722.40;68.28;;;;;;;;;;4909493;28;20920;-90
2024/01/06 14:03:06;;;;;;;728.70;69.60;;;;;;;;;;4916641;28;20590;-88
2024/01/06 14:05:34;;;;;;;787.80;77.25;;;;;;;;;;4905799;28;20041;-89
2024/01/06 14:08:01;;;;;;;827.83;81.07;;;;;;;;;;4895644;28;20056;-89
2024/01/06 14:10:28;;;;;;;830.40;81.28;;;;;;;;;;4905923;28;20040;-88
2024/01/06 14:12:54;;;;;;;838.33;83.22;;;;;;;;;;4906359;28;20944;-89
2024/01/06 14:15:21;;;;;;;784.10;74.05;;;;;;;;;;4897026;28;20033;-91
2024/01/06 14:17:51;;;;;;;707.15;66.07;;;;;;;;;;4920036;28;20069;-91
2024/01/06 14:20:18;;;;;;;907.08;90.15;;;;;;;;;;4919350;28;20054;-90
2024/01/06 14:22:46;;;;;;;964.55;97.22;;;;;;;;;;4869171;28;21219;-89
2024/01/06 14:25:13;;;;;;;744.28;71.30;;;;;;;;;;4908431;28;20145;-89
2024/01/06 14:27:40;;;;;;;713.45;69.10;;;;;;;;;;4903687;28;21081;-90
2024/01/06 14:30:09;;;;;;;797.75;79.05;;;;;;;;;;4897444;28;20046;-90
2024/01/06 14:32:36;;;;;;;1076.85;111.43;;;;;;;;;;4872402;28;20741;-90